sensor_id;sensor_type;location;lat;lon;timestamp;temperature;humidity
47779;DHT22;33538;48.432;11.350;2022-07-15T00:01:34;24.20;53.20
47779;DHT22;33538;48.432;11.350;2022-07-15T00:04:01;24.20;53.00
47779;DHT22;33538;48.432;11.350;2022-07-15T00:06:28;24.20;53.00
47779;DHT22;33538;48.432;11.350;2022-07-15T00:08:55;24.20;53.00
47779;DHT22;33538;48.432;11.350;2022-07-15T00:11:22;24.10;52.80
47779;DHT22;33538;48.432;11.350;2022-07-15T00:13:48;24.00;52.40
47779;DHT22;33538;48.432;11.350;2022-07-15T00:16:16;24.00;52.40
47779;DHT22;33538;48.432;11.350;2022-07-15T00:18:43;24.00;52.00
47779;DHT22;33538;48.432;11.350;2022-07-15T00:21:10;24.00;51.90
47779;DHT22;33538;48.432;11.350;2022-07-15T00:23:37;23.90;51.80
47779;DHT22;33538;48.432;11.350;2022-07-15T00:26:04;23.80;51.60
47779;DHT22;33538;48.432;11.350;2022-07-15T00:28:31;23.80;51.60
47779;DHT22;33538;48.432;11.350;2022-07-15T00:30:58;23.80;51.70
47779;DHT22;33538;48.432;11.350;2022-07-15T00:33:26;23.80;51.60
47779;DHT22;33538;48.432;11.350;2022-07-15T00:35:53;23.80;51.60
47779;DHT22;33538;48.432;11.350;2022-07-15T00:38:20;23.80;51.50
47779;DHT22;33538;48.432;11.350;2022-07-15T00:40:48;23.80;51.90
47779;DHT22;33538;48.432;11.350;2022-07-15T00:43:16;23.80;51.80
47779;DHT22;33538;48.432;11.350;2022-07-15T00:45:44;23.70;51.70
47779;DHT22;33538;48.432;11.350;2022-07-15T00:48:11;23.60;51.70
47779;DHT22;33538;48.432;11.350;2022-07-15T00:50:46;23.70;51.90
47779;DHT22;33538;48.432;11.350;2022-07-15T00:53:17;23.70;51.60
47779;DHT22;33538;48.432;11.350;2022-07-15T00:55:45;23.70;51.70
47779;DHT22;33538;48.432;11.350;2022-07-15T00:58:16;23.70;51.70
47779;DHT22;33538;48.432;11.350;2022-07-15T01:00:44;23.80;51.80
47779;DHT22;33538;48.432;11.350;2022-07-15T01:03:11;23.60;51.80
47779;DHT22;33538;48.432;11.350;2022-07-15T01:05:40;23.60;51.70
47779;DHT22;33538;48.432;11.350;2022-07-15T01:08:09;23.60;52.20
47779;DHT22;33538;48.432;11.350;2022-07-15T01:10:36;23.40;52.20
47779;DHT22;33538;48.432;11.350;2022-07-15T01:13:03;23.50;52.30
47779;DHT22;33538;48.432;11.350;2022-07-15T01:15:29;23.40;52.30
47779;DHT22;33538;48.432;11.350;2022-07-15T01:17:58;23.40;52.60
47779;DHT22;33538;48.432;11.350;2022-07-15T01:20:25;23.40;52.50
47779;DHT22;33538;48.432;11.350;2022-07-15T01:22:53;23.50;52.50
47779;DHT22;33538;48.432;11.350;2022-07-15T01:25:20;23.40;52.60
47779;DHT22;33538;48.432;11.350;2022-07-15T01:27:46;23.30;52.70
47779;DHT22;33538;48.432;11.350;2022-07-15T01:30:13;23.20;53.10
47779;DHT22;33538;48.432;11.350;2022-07-15T01:32:40;23.30;53.00
47779;DHT22;33538;48.432;11.350;2022-07-15T01:35:07;23.40;53.00
47779;DHT22;33538;48.432;11.350;2022-07-15T01:37:34;23.40;53.10
47779;DHT22;33538;48.432;11.350;2022-07-15T01:40:04;23.40;53.20
47779;DHT22;33538;48.432;11.350;2022-07-15T01:42:31;23.30;53.30
47779;DHT22;33538;48.432;11.350;2022-07-15T01:44:57;23.30;53.20
47779;DHT22;33538;48.432;11.350;2022-07-15T01:47:24;23.30;52.90
47779;DHT22;33538;48.432;11.350;2022-07-15T01:49:51;23.20;52.50
47779;DHT22;33538;48.432;11.350;2022-07-15T01:52:18;23.10;52.70
47779;DHT22;33538;48.432;11.350;2022-07-15T01:54:44;23.10;52.70
47779;DHT22;33538;48.432;11.350;2022-07-15T01:57:13;23.10;52.70
47779;DHT22;33538;48.432;11.350;2022-07-15T01:59:39;23.10;52.50
47779;DHT22;33538;48.432;11.350;2022-07-15T02:02:06;23.00;52.80
47779;DHT22;33538;48.432;11.350;2022-07-15T02:04:33;23.10;52.60
47779;DHT22;33538;48.432;11.350;2022-07-15T02:07:00;23.10;52.50
47779;DHT22;33538;48.432;11.350;2022-07-15T02:09:26;23.10;52.50
47779;DHT22;33538;48.432;11.350;2022-07-15T02:11:53;23.00;52.30
47779;DHT22;33538;48.432;11.350;2022-07-15T02:14:21;23.00;52.20
47779;DHT22;33538;48.432;11.350;2022-07-15T02:16:48;23.00;52.40
47779;DHT22;33538;48.432;11.350;2022-07-15T02:19:15;23.00;52.40
47779;DHT22;33538;48.432;11.350;2022-07-15T02:21:42;23.00;52.30
47779;DHT22;33538;48.432;11.350;2022-07-15T02:24:08;23.00;52.20
47779;DHT22;33538;48.432;11.350;2022-07-15T02:26:35;22.90;52.10
47779;DHT22;33538;48.432;11.350;2022-07-15T02:29:02;22.90;52.20
47779;DHT22;33538;48.432;11.350;2022-07-15T02:31:30;22.70;52.30
47779;DHT22;33538;48.432;11.350;2022-07-15T02:33:57;22.70;52.30
47779;DHT22;33538;48.432;11.350;2022-07-15T02:36:24;22.70;52.30
47779;DHT22;33538;48.432;11.350;2022-07-15T02:38:51;22.70;52.60
47779;DHT22;33538;48.432;11.350;2022-07-15T02:41:18;22.70;52.30
47779;DHT22;33538;48.432;11.350;2022-07-15T02:43:44;22.70;52.50
47779;DHT22;33538;48.432;11.350;2022-07-15T02:46:11;22.60;53.20
47779;DHT22;33538;48.432;11.350;2022-07-15T02:48:40;22.60;52.60
47779;DHT22;33538;48.432;11.350;2022-07-15T02:51:07;22.50;52.80
47779;DHT22;33538;48.432;11.350;2022-07-15T02:53:35;22.50;52.50
47779;DHT22;33538;48.432;11.350;2022-07-15T02:56:02;22.40;52.80
47779;DHT22;33538;48.432;11.350;2022-07-15T02:58:30;22.50;52.70
47779;DHT22;33538;48.432;11.350;2022-07-15T03:00:57;22.50;52.80
47779;DHT22;33538;48.432;11.350;2022-07-15T03:03:24;22.40;52.80
47779;DHT22;33538;48.432;11.350;2022-07-15T03:05:53;22.40;53.00
47779;DHT22;33538;48.432;11.350;2022-07-15T03:08:19;22.30;53.00
47779;DHT22;33538;48.432;11.350;2022-07-15T03:10:46;22.40;52.90
47779;DHT22;33538;48.432;11.350;2022-07-15T03:13:13;22.40;52.80
47779;DHT22;33538;48.432;11.350;2022-07-15T03:15:39;22.30;53.00
47779;DHT22;33538;48.432;11.350;2022-07-15T03:18:06;22.20;53.20
47779;DHT22;33538;48.432;11.350;2022-07-15T03:20:33;22.20;53.00
47779;DHT22;33538;48.432;11.350;2022-07-15T03:23:01;22.20;52.90
47779;DHT22;33538;48.432;11.350;2022-07-15T03:25:28;22.10;53.30
47779;DHT22;33538;48.432;11.350;2022-07-15T03:27:55;22.10;53.40
47779;DHT22;33538;48.432;11.350;2022-07-15T03:30:22;22.20;53.40
47779;DHT22;33538;48.432;11.350;2022-07-15T03:32:49;22.20;53.50
47779;DHT22;33538;48.432;11.350;2022-07-15T03:35:16;22.10;53.40
47779;DHT22;33538;48.432;11.350;2022-07-15T03:37:42;22.20;53.30
47779;DHT22;33538;48.432;11.350;2022-07-15T03:40:12;22.10;53.30
47779;DHT22;33538;48.432;11.350;2022-07-15T03:42:39;22.00;53.30
47779;DHT22;33538;48.432;11.350;2022-07-15T03:45:07;21.90;54.30
47779;DHT22;33538;48.432;11.350;2022-07-15T03:47:33;22.00;53.60
47779;DHT22;33538;48.432;11.350;2022-07-15T03:50:00;22.00;53.60
47779;DHT22;33538;48.432;11.350;2022-07-15T03:52:27;21.90;53.70
47779;DHT22;33538;48.432;11.350;2022-07-15T03:54:54;22.00;54.10
47779;DHT22;33538;48.432;11.350;2022-07-15T03:57:22;22.00;54.20
47779;DHT22;33538;48.432;11.350;2022-07-15T03:59:49;22.00;54.10
47779;DHT22;33538;48.432;11.350;2022-07-15T04:02:15;22.00;54.30
47779;DHT22;33538;48.432;11.350;2022-07-15T04:04:42;22.00;54.10
47779;DHT22;33538;48.432;11.350;2022-07-15T04:07:09;21.90;54.10
47779;DHT22;33538;48.432;11.350;2022-07-15T04:09:36;21.80;54.20
47779;DHT22;33538;48.432;11.350;2022-07-15T04:12:03;21.80;54.10
47779;DHT22;33538;48.432;11.350;2022-07-15T04:14:31;21.80;54.10
47779;DHT22;33538;48.432;11.350;2022-07-15T04:16:58;21.70;54.20
47779;DHT22;33538;48.432;11.350;2022-07-15T04:19:25;21.80;54.40
47779;DHT22;33538;48.432;11.350;2022-07-15T04:21:52;21.80;54.10
47779;DHT22;33538;48.432;11.350;2022-07-15T04:24:18;21.90;54.50
47779;DHT22;33538;48.432;11.350;2022-07-15T04:26:49;21.90;54.70
47779;DHT22;33538;48.432;11.350;2022-07-15T04:29:16;21.90;54.90
47779;DHT22;33538;48.432;11.350;2022-07-15T04:31:44;21.70;54.40
47779;DHT22;33538;48.432;11.350;2022-07-15T04:34:11;21.80;54.40
47779;DHT22;33538;48.432;11.350;2022-07-15T04:36:38;21.70;54.40
47779;DHT22;33538;48.432;11.350;2022-07-15T04:39:04;21.70;54.60
47779;DHT22;33538;48.432;11.350;2022-07-15T04:41:31;21.80;55.00
47779;DHT22;33538;48.432;11.350;2022-07-15T04:43:58;21.80;54.90
47779;DHT22;33538;48.432;11.350;2022-07-15T04:46:25;21.80;55.00
47779;DHT22;33538;48.432;11.350;2022-07-15T04:48:53;21.80;55.30
47779;DHT22;33538;48.432;11.350;2022-07-15T04:51:20;21.80;55.10
47779;DHT22;33538;48.432;11.350;2022-07-15T04:53:46;21.80;55.30
47779;DHT22;33538;48.432;11.350;2022-07-15T04:56:13;21.50;55.30
47779;DHT22;33538;48.432;11.350;2022-07-15T04:58:40;21.60;55.30
47779;DHT22;33538;48.432;11.350;2022-07-15T05:01:07;21.70;55.00
47779;DHT22;33538;48.432;11.350;2022-07-15T05:03:34;21.70;55.00
47779;DHT22;33538;48.432;11.350;2022-07-15T05:06:02;21.60;55.00
47779;DHT22;33538;48.432;11.350;2022-07-15T05:08:29;21.60;55.00
47779;DHT22;33538;48.432;11.350;2022-07-15T05:10:56;21.60;55.10
47779;DHT22;33538;48.432;11.350;2022-07-15T05:13:23;21.50;55.50
47779;DHT22;33538;48.432;11.350;2022-07-15T05:15:49;21.50;55.40
47779;DHT22;33538;48.432;11.350;2022-07-15T05:18:16;21.60;55.40
47779;DHT22;33538;48.432;11.350;2022-07-15T05:20:43;21.60;54.90
47779;DHT22;33538;48.432;11.350;2022-07-15T05:23:11;21.70;54.80
47779;DHT22;33538;48.432;11.350;2022-07-15T05:25:38;21.70;54.70
47779;DHT22;33538;48.432;11.350;2022-07-15T05:28:05;21.70;54.60
47779;DHT22;33538;48.432;11.350;2022-07-15T05:30:31;21.70;54.60
47779;DHT22;33538;48.432;11.350;2022-07-15T05:32:58;21.70;54.40
47779;DHT22;33538;48.432;11.350;2022-07-15T05:35:25;21.70;54.50
47779;DHT22;33538;48.432;11.350;2022-07-15T05:37:52;21.80;54.60
47779;DHT22;33538;48.432;11.350;2022-07-15T05:40:21;21.90;54.30
47779;DHT22;33538;48.432;11.350;2022-07-15T05:42:47;21.80;54.20
47779;DHT22;33538;48.432;11.350;2022-07-15T05:45:14;21.90;53.90
47779;DHT22;33538;48.432;11.350;2022-07-15T05:47:47;22.00;54.30
47779;DHT22;33538;48.432;11.350;2022-07-15T05:50:13;22.00;53.60
47779;DHT22;33538;48.432;11.350;2022-07-15T05:52:40;22.00;53.70
47779;DHT22;33538;48.432;11.350;2022-07-15T05:55:07;21.90;53.30
47779;DHT22;33538;48.432;11.350;2022-07-15T05:57:35;21.90;53.40
47779;DHT22;33538;48.432;11.350;2022-07-15T06:00:11;22.00;53.30
47779;DHT22;33538;48.432;11.350;2022-07-15T06:02:38;22.00;53.10
47779;DHT22;33538;48.432;11.350;2022-07-15T06:05:06;22.10;53.20
47779;DHT22;33538;48.432;11.350;2022-07-15T06:07:33;22.20;52.80
47779;DHT22;33538;48.432;11.350;2022-07-15T06:10:00;22.10;52.30
47779;DHT22;33538;48.432;11.350;2022-07-15T06:12:27;22.00;52.20
47779;DHT22;33538;48.432;11.350;2022-07-15T06:14:55;22.00;52.50
47779;DHT22;33538;48.432;11.350;2022-07-15T06:17:22;22.10;52.40
47779;DHT22;33538;48.432;11.350;2022-07-15T06:19:48;22.10;52.40
47779;DHT22;33538;48.432;11.350;2022-07-15T06:22:15;22.10;52.30
47779;DHT22;33538;48.432;11.350;2022-07-15T06:24:42;22.00;52.20
47779;DHT22;33538;48.432;11.350;2022-07-15T06:27:09;22.10;52.40
47779;DHT22;33538;48.432;11.350;2022-07-15T06:29:35;22.10;52.50
47779;DHT22;33538;48.432;11.350;2022-07-15T06:32:04;22.10;52.60
47779;DHT22;33538;48.432;11.350;2022-07-15T06:34:31;22.20;52.70
47779;DHT22;33538;48.432;11.350;2022-07-15T06:36:58;22.30;52.60
47779;DHT22;33538;48.432;11.350;2022-07-15T06:39:25;22.30;52.50
47779;DHT22;33538;48.432;11.350;2022-07-15T06:41:52;22.40;52.50
47779;DHT22;33538;48.432;11.350;2022-07-15T06:44:18;22.40;52.10
47779;DHT22;33538;48.432;11.350;2022-07-15T06:46:45;22.40;52.20
47779;DHT22;33538;48.432;11.350;2022-07-15T06:49:14;22.40;52.10
47779;DHT22;33538;48.432;11.350;2022-07-15T06:51:40;22.50;51.80
47779;DHT22;33538;48.432;11.350;2022-07-15T06:54:07;22.50;51.60
47779;DHT22;33538;48.432;11.350;2022-07-15T06:56:34;22.60;51.40
47779;DHT22;33538;48.432;11.350;2022-07-15T06:59:01;22.60;51.20
47779;DHT22;33538;48.432;11.350;2022-07-15T07:01:28;22.70;51.10
47779;DHT22;33538;48.432;11.350;2022-07-15T07:03:55;22.70;50.90
47779;DHT22;33538;48.432;11.350;2022-07-15T07:06:26;22.80;51.00
47779;DHT22;33538;48.432;11.350;2022-07-15T07:08:53;22.80;50.90
47779;DHT22;33538;48.432;11.350;2022-07-15T07:11:21;22.80;50.60
47779;DHT22;33538;48.432;11.350;2022-07-15T07:13:48;22.80;50.60
47779;DHT22;33538;48.432;11.350;2022-07-15T07:16:15;22.90;50.30
47779;DHT22;33538;48.432;11.350;2022-07-15T07:18:42;22.90;50.40
47779;DHT22;33538;48.432;11.350;2022-07-15T07:21:09;23.00;50.30
47779;DHT22;33538;48.432;11.350;2022-07-15T07:23:37;23.00;50.00
47779;DHT22;33538;48.432;11.350;2022-07-15T07:26:04;23.00;50.20
47779;DHT22;33538;48.432;11.350;2022-07-15T07:28:31;23.10;50.40
47779;DHT22;33538;48.432;11.350;2022-07-15T07:30:58;23.10;50.50
47779;DHT22;33538;48.432;11.350;2022-07-15T07:33:25;23.20;50.60
47779;DHT22;33538;48.432;11.350;2022-07-15T07:35:52;23.30;50.50
47779;DHT22;33538;48.432;11.350;2022-07-15T07:38:19;23.30;50.30
47779;DHT22;33538;48.432;11.350;2022-07-15T07:40:47;23.40;50.30
47779;DHT22;33538;48.432;11.350;2022-07-15T07:43:14;23.40;50.00
47779;DHT22;33538;48.432;11.350;2022-07-15T07:45:41;23.40;50.10
47779;DHT22;33538;48.432;11.350;2022-07-15T07:48:07;23.50;50.60
47779;DHT22;33538;48.432;11.350;2022-07-15T07:50:34;23.50;50.60
47779;DHT22;33538;48.432;11.350;2022-07-15T07:53:01;23.60;50.60
47779;DHT22;33538;48.432;11.350;2022-07-15T07:55:28;23.60;50.60
47779;DHT22;33538;48.432;11.350;2022-07-15T07:57:57;23.70;50.50
47779;DHT22;33538;48.432;11.350;2022-07-15T08:00:26;23.70;50.50
47779;DHT22;33538;48.432;11.350;2022-07-15T08:02:53;23.70;50.60
47779;DHT22;33538;48.432;11.350;2022-07-15T08:05:21;23.80;50.60
47779;DHT22;33538;48.432;11.350;2022-07-15T08:07:51;23.80;50.50
47779;DHT22;33538;48.432;11.350;2022-07-15T08:10:18;23.80;50.10
47779;DHT22;33538;48.432;11.350;2022-07-15T08:12:45;23.90;50.20
47779;DHT22;33538;48.432;11.350;2022-07-15T08:15:13;23.90;50.40
47779;DHT22;33538;48.432;11.350;2022-07-15T08:17:40;23.90;50.40
47779;DHT22;33538;48.432;11.350;2022-07-15T08:20:09;23.90;50.40
47779;DHT22;33538;48.432;11.350;2022-07-15T08:22:36;24.00;50.20
47779;DHT22;33538;48.432;11.350;2022-07-15T08:25:03;24.00;50.20
47779;DHT22;33538;48.432;11.350;2022-07-15T08:27:30;24.00;49.40
47779;DHT22;33538;48.432;11.350;2022-07-15T08:29:57;24.00;49.80
47779;DHT22;33538;48.432;11.350;2022-07-15T08:32:25;24.10;49.80
47779;DHT22;33538;48.432;11.350;2022-07-15T08:34:52;24.10;49.40
47779;DHT22;33538;48.432;11.350;2022-07-15T08:37:19;24.10;49.60
47779;DHT22;33538;48.432;11.350;2022-07-15T08:39:46;24.10;49.50
47779;DHT22;33538;48.432;11.350;2022-07-15T08:42:12;24.20;49.30
47779;DHT22;33538;48.432;11.350;2022-07-15T08:44:39;24.20;49.50
47779;DHT22;33538;48.432;11.350;2022-07-15T08:47:06;24.20;49.40
47779;DHT22;33538;48.432;11.350;2022-07-15T08:49:55;24.20;49.60
47779;DHT22;33538;48.432;11.350;2022-07-15T08:52:23;24.20;49.60
47779;DHT22;33538;48.432;11.350;2022-07-15T08:54:50;24.20;49.60
47779;DHT22;33538;48.432;11.350;2022-07-15T08:57:17;24.30;49.90
47779;DHT22;33538;48.432;11.350;2022-07-15T08:59:44;24.20;49.80
47779;DHT22;33538;48.432;11.350;2022-07-15T09:02:12;24.30;49.60
47779;DHT22;33538;48.432;11.350;2022-07-15T09:07:52;24.40;48.50
47779;DHT22;33538;48.432;11.350;2022-07-15T09:10:19;24.50;49.00
47779;DHT22;33538;48.432;11.350;2022-07-15T09:12:49;24.40;49.00
47779;DHT22;33538;48.432;11.350;2022-07-15T09:15:30;24.40;48.80
47779;DHT22;33538;48.432;11.350;2022-07-15T09:18:05;24.40;48.80
47779;DHT22;33538;48.432;11.350;2022-07-15T09:20:32;24.50;49.10
47779;DHT22;33538;48.432;11.350;2022-07-15T09:23:00;24.50;49.60
47779;DHT22;33538;48.432;11.350;2022-07-15T09:25:28;24.50;49.70
47779;DHT22;33538;48.432;11.350;2022-07-15T09:27:55;24.50;49.20
47779;DHT22;33538;48.432;11.350;2022-07-15T09:30:23;24.60;49.30
47779;DHT22;33538;48.432;11.350;2022-07-15T09:32:50;24.60;49.40
47779;DHT22;33538;48.432;11.350;2022-07-15T09:35:27;24.60;49.50
47779;DHT22;33538;48.432;11.350;2022-07-15T09:37:55;24.60;49.60
47779;DHT22;33538;48.432;11.350;2022-07-15T09:40:24;24.70;49.60
47779;DHT22;33538;48.432;11.350;2022-07-15T09:43:01;24.70;49.50
47779;DHT22;33538;48.432;11.350;2022-07-15T09:45:28;24.70;49.50
47779;DHT22;33538;48.432;11.350;2022-07-15T09:48:05;24.70;49.80
47779;DHT22;33538;48.432;11.350;2022-07-15T09:50:35;24.70;49.90
47779;DHT22;33538;48.432;11.350;2022-07-15T09:53:04;24.80;49.90
47779;DHT22;33538;48.432;11.350;2022-07-15T09:55:32;24.80;50.10
47779;DHT22;33538;48.432;11.350;2022-07-15T09:58:00;24.80;50.20
47779;DHT22;33538;48.432;11.350;2022-07-15T10:00:27;24.90;50.40
47779;DHT22;33538;48.432;11.350;2022-07-15T10:02:54;24.90;50.50
47779;DHT22;33538;48.432;11.350;2022-07-15T10:05:21;24.90;50.50
47779;DHT22;33538;48.432;11.350;2022-07-15T10:07:48;24.90;50.60
47779;DHT22;33538;48.432;11.350;2022-07-15T10:10:16;24.90;50.60
47779;DHT22;33538;48.432;11.350;2022-07-15T10:12:52;24.90;50.80
47779;DHT22;33538;48.432;11.350;2022-07-15T10:15:28;25.00;50.90
47779;DHT22;33538;48.432;11.350;2022-07-15T10:18:11;25.00;50.80
47779;DHT22;33538;48.432;11.350;2022-07-15T10:21:06;25.00;50.80
47779;DHT22;33538;48.432;11.350;2022-07-15T10:23:54;25.10;50.90
47779;DHT22;33538;48.432;11.350;2022-07-15T10:26:32;25.10;50.80
47779;DHT22;33538;48.432;11.350;2022-07-15T10:29:05;25.10;51.00
47779;DHT22;33538;48.432;11.350;2022-07-15T10:31:34;25.10;50.90
47779;DHT22;33538;48.432;11.350;2022-07-15T10:34:22;25.10;50.70
47779;DHT22;33538;48.432;11.350;2022-07-15T10:37:00;25.10;50.50
47779;DHT22;33538;48.432;11.350;2022-07-15T10:39:47;25.20;50.00
47779;DHT22;33538;48.432;11.350;2022-07-15T10:42:14;25.30;50.20
47779;DHT22;33538;48.432;11.350;2022-07-15T10:45:02;25.40;48.80
47779;DHT22;33538;48.432;11.350;2022-07-15T10:47:29;25.40;50.00
47779;DHT22;33538;48.432;11.350;2022-07-15T10:49:56;25.30;50.50
47779;DHT22;33538;48.432;11.350;2022-07-15T10:52:26;25.30;50.80
47779;DHT22;33538;48.432;11.350;2022-07-15T10:55:00;25.40;51.00
47779;DHT22;33538;48.432;11.350;2022-07-15T10:57:52;25.40;51.20
47779;DHT22;33538;48.432;11.350;2022-07-15T11:00:29;25.40;51.40
47779;DHT22;33538;48.432;11.350;2022-07-15T11:03:05;25.40;51.50
47779;DHT22;33538;48.432;11.350;2022-07-15T11:05:33;25.40;51.60
47779;DHT22;33538;48.432;11.350;2022-07-15T11:08:00;25.40;51.70
47779;DHT22;33538;48.432;11.350;2022-07-15T11:10:27;25.40;51.80
47779;DHT22;33538;48.432;11.350;2022-07-15T11:12:58;25.50;52.00
47779;DHT22;33538;48.432;11.350;2022-07-15T11:15:27;25.50;52.00
47779;DHT22;33538;48.432;11.350;2022-07-15T11:17:56;25.50;52.70
47779;DHT22;33538;48.432;11.350;2022-07-15T11:20:33;25.50;52.10
47779;DHT22;33538;48.432;11.350;2022-07-15T11:23:02;25.50;52.20
47779;DHT22;33538;48.432;11.350;2022-07-15T11:25:31;25.60;52.20
47779;DHT22;33538;48.432;11.350;2022-07-15T11:28:05;25.50;52.20
47779;DHT22;33538;48.432;11.350;2022-07-15T11:30:34;25.60;51.90
47779;DHT22;33538;48.432;11.350;2022-07-15T11:33:03;25.60;52.40
47779;DHT22;33538;48.432;11.350;2022-07-15T11:35:31;25.70;52.60
47779;DHT22;33538;48.432;11.350;2022-07-15T11:38:07;25.70;52.90
47779;DHT22;33538;48.432;11.350;2022-07-15T11:40:34;25.70;52.80
47779;DHT22;33538;48.432;11.350;2022-07-15T11:43:03;25.70;52.90
47779;DHT22;33538;48.432;11.350;2022-07-15T11:45:36;25.70;52.90
47779;DHT22;33538;48.432;11.350;2022-07-15T11:48:04;25.70;53.10
47779;DHT22;33538;48.432;11.350;2022-07-15T11:50:31;25.70;53.10
47779;DHT22;33538;48.432;11.350;2022-07-15T11:52:59;25.70;53.10
47779;DHT22;33538;48.432;11.350;2022-07-15T11:55:26;25.70;53.00
47779;DHT22;33538;48.432;11.350;2022-07-15T11:57:53;25.80;53.30
47779;DHT22;33538;48.432;11.350;2022-07-15T12:00:28;25.80;53.30
47779;DHT22;33538;48.432;11.350;2022-07-15T12:03:07;25.80;53.20
47779;DHT22;33538;48.432;11.350;2022-07-15T12:05:34;25.80;53.20
47779;DHT22;33538;48.432;11.350;2022-07-15T12:08:01;25.80;53.00
47779;DHT22;33538;48.432;11.350;2022-07-15T12:10:33;25.90;53.10
47779;DHT22;33538;48.432;11.350;2022-07-15T12:13:00;25.90;53.00
47779;DHT22;33538;48.432;11.350;2022-07-15T12:15:28;25.90;53.10
47779;DHT22;33538;48.432;11.350;2022-07-15T12:17:55;25.90;52.80
47779;DHT22;33538;48.432;11.350;2022-07-15T12:20:23;25.90;52.90
47779;DHT22;33538;48.432;11.350;2022-07-15T12:23:07;25.90;52.90
47779;DHT22;33538;48.432;11.350;2022-07-15T12:25:34;26.00;51.50
47779;DHT22;33538;48.432;11.350;2022-07-15T12:28:01;26.00;51.80
47779;DHT22;33538;48.432;11.350;2022-07-15T12:30:32;26.00;52.40
47779;DHT22;33538;48.432;11.350;2022-07-15T12:33:16;26.00;52.60
47779;DHT22;33538;48.432;11.350;2022-07-15T12:35:45;25.90;52.70
47779;DHT22;33538;48.432;11.350;2022-07-15T12:38:25;26.20;50.10
47779;DHT22;33538;48.432;11.350;2022-07-15T12:40:52;26.10;51.70
47779;DHT22;33538;48.432;11.350;2022-07-15T12:43:19;26.00;52.10
47779;DHT22;33538;48.432;11.350;2022-07-15T12:45:48;26.30;50.10
47779;DHT22;33538;48.432;11.350;2022-07-15T12:48:15;26.20;51.50
47779;DHT22;33538;48.432;11.350;2022-07-15T12:50:58;26.10;51.90
47779;DHT22;33538;48.432;11.350;2022-07-15T12:53:26;26.10;52.30
47779;DHT22;33538;48.432;11.350;2022-07-15T12:55:57;26.10;52.40
47779;DHT22;33538;48.432;11.350;2022-07-15T12:58:26;26.10;52.60
47779;DHT22;33538;48.432;11.350;2022-07-15T13:01:08;26.30;51.00
47779;DHT22;33538;48.432;11.350;2022-07-15T13:03:35;26.20;51.70
47779;DHT22;33538;48.432;11.350;2022-07-15T13:06:04;26.20;49.30
47779;DHT22;33538;48.432;11.350;2022-07-15T13:08:32;26.20;51.20
47779;DHT22;33538;48.432;11.350;2022-07-15T13:11:01;26.20;51.60
47779;DHT22;33538;48.432;11.350;2022-07-15T13:13:30;26.20;51.70
47779;DHT22;33538;48.432;11.350;2022-07-15T13:15:57;26.10;51.30
47779;DHT22;33538;48.432;11.350;2022-07-15T13:18:24;26.20;51.30
47779;DHT22;33538;48.432;11.350;2022-07-15T13:20:51;26.40;48.90
47779;DHT22;33538;48.432;11.350;2022-07-15T13:23:21;26.40;49.40
47779;DHT22;33538;48.432;11.350;2022-07-15T13:25:48;26.30;50.60
47779;DHT22;33538;48.432;11.350;2022-07-15T13:28:15;26.20;50.80
47779;DHT22;33538;48.432;11.350;2022-07-15T13:30:41;26.20;50.10
47779;DHT22;33538;48.432;11.350;2022-07-15T13:33:08;26.20;50.90
47779;DHT22;33538;48.432;11.350;2022-07-15T13:35:36;26.20;51.30
47779;DHT22;33538;48.432;11.350;2022-07-15T13:38:03;26.20;51.60
47779;DHT22;33538;48.432;11.350;2022-07-15T13:40:31;26.20;51.60
47779;DHT22;33538;48.432;11.350;2022-07-15T13:42:58;26.20;52.00
47779;DHT22;33538;48.432;11.350;2022-07-15T13:45:24;26.20;51.20
47779;DHT22;33538;48.432;11.350;2022-07-15T13:47:51;26.20;51.60
47779;DHT22;33538;48.432;11.350;2022-07-15T13:50:18;26.20;51.40
47779;DHT22;33538;48.432;11.350;2022-07-15T13:52:46;26.20;51.70
47779;DHT22;33538;48.432;11.350;2022-07-15T13:55:14;26.20;51.90
47779;DHT22;33538;48.432;11.350;2022-07-15T13:57:43;26.30;50.60
47779;DHT22;33538;48.432;11.350;2022-07-15T14:00:11;26.30;51.10
47779;DHT22;33538;48.432;11.350;2022-07-15T14:02:38;26.30;51.20
47779;DHT22;33538;48.432;11.350;2022-07-15T14:05:06;26.30;51.60
47779;DHT22;33538;48.432;11.350;2022-07-15T14:07:34;26.30;51.80
47779;DHT22;33538;48.432;11.350;2022-07-15T14:10:01;26.30;51.80
47779;DHT22;33538;48.432;11.350;2022-07-15T14:12:28;26.30;49.80
47779;DHT22;33538;48.432;11.350;2022-07-15T14:14:56;26.40;50.40
47779;DHT22;33538;48.432;11.350;2022-07-15T14:17:23;26.40;51.10
47779;DHT22;33538;48.432;11.350;2022-07-15T14:19:50;26.30;51.20
47779;DHT22;33538;48.432;11.350;2022-07-15T14:22:17;26.30;51.30
47779;DHT22;33538;48.432;11.350;2022-07-15T14:24:44;26.30;50.40
47779;DHT22;33538;48.432;11.350;2022-07-15T14:27:11;26.80;46.80
47779;DHT22;33538;48.432;11.350;2022-07-15T14:29:38;26.70;48.60
47779;DHT22;33538;48.432;11.350;2022-07-15T14:32:06;26.60;49.60
47779;DHT22;33538;48.432;11.350;2022-07-15T14:34:33;26.50;49.70
47779;DHT22;33538;48.432;11.350;2022-07-15T14:37:02;26.50;50.00
47779;DHT22;33538;48.432;11.350;2022-07-15T14:39:49;26.50;50.20
47779;DHT22;33538;48.432;11.350;2022-07-15T14:42:16;26.40;50.20
47779;DHT22;33538;48.432;11.350;2022-07-15T14:44:42;26.40;50.30
47779;DHT22;33538;48.432;11.350;2022-07-15T14:47:11;26.40;50.40
47779;DHT22;33538;48.432;11.350;2022-07-15T14:49:37;26.40;50.50
47779;DHT22;33538;48.432;11.350;2022-07-15T14:52:04;26.40;50.70
47779;DHT22;33538;48.432;11.350;2022-07-15T14:54:31;26.40;50.70
47779;DHT22;33538;48.432;11.350;2022-07-15T14:56:58;26.40;50.60
47779;DHT22;33538;48.432;11.350;2022-07-15T14:59:25;26.50;50.70
47779;DHT22;33538;48.432;11.350;2022-07-15T15:01:51;26.50;50.50
47779;DHT22;33538;48.432;11.350;2022-07-15T15:04:20;26.50;50.50
47779;DHT22;33538;48.432;11.350;2022-07-15T15:06:47;26.50;49.90
47779;DHT22;33538;48.432;11.350;2022-07-15T15:09:13;26.60;49.00
47779;DHT22;33538;48.432;11.350;2022-07-15T15:11:40;26.60;49.50
47779;DHT22;33538;48.432;11.350;2022-07-15T15:14:07;26.60;49.60
47779;DHT22;33538;48.432;11.350;2022-07-15T15:16:34;26.60;49.70
47779;DHT22;33538;48.432;11.350;2022-07-15T15:19:22;26.60;49.70
47779;DHT22;33538;48.432;11.350;2022-07-15T15:21:49;26.70;48.20
47779;DHT22;33538;48.432;11.350;2022-07-15T15:24:15;26.70;48.50
47779;DHT22;33538;48.432;11.350;2022-07-15T15:26:48;26.70;48.70